sensor_id;sensor_type;location;lat;lon;timestamp;pressure;altitude;pressure_sealevel;temperature;humidity
12973;BME280;6551;51.056;9.466;2023-06-14T00:00:51;97484.13;;;20.16;46.02
12973;BME280;6551;51.056;9.466;2023-06-14T00:03:18;97485.06;;;20.35;46.03
12973;BME280;6551;51.056;9.466;2023-06-14T00:05:48;97486.44;;;20.32;46.25
12973;BME280;6551;51.056;9.466;2023-06-14T00:08:14;97485.03;;;20.40;46.27
12973;BME280;6551;51.056;9.466;2023-06-14T00:10:41;97491.06;;;20.56;46.20
12973;BME280;6551;51.056;9.466;2023-06-14T00:13:09;97493.31;;;20.72;46.01
12973;BME280;6551;51.056;9.466;2023-06-14T00:15:35;97490.94;;;20.71;45.63
12973;BME280;6551;51.056;9.466;2023-06-14T00:18:02;97486.84;;;20.73;45.70
12973;BME280;6551;51.056;9.466;2023-06-14T00:20:32;97486.19;;;20.81;45.61
12973;BME280;6551;51.056;9.466;2023-06-14T00:23:00;97498.16;;;20.52;45.82
12973;BME280;6551;51.056;9.466;2023-06-14T00:25:27;97497.09;;;20.76;45.94
12973;BME280;6551;51.056;9.466;2023-06-14T00:27:54;97483.75;;;20.80;45.77
12973;BME280;6551;51.056;9.466;2023-06-14T00:30:21;97481.66;;;20.77;45.70
12973;BME280;6551;51.056;9.466;2023-06-14T00:32:47;97488.97;;;20.76;45.73
12973;BME280;6551;51.056;9.466;2023-06-14T00:35:14;97492.22;;;20.50;46.08
12973;BME280;6551;51.056;9.466;2023-06-14T00:37:40;97488.28;;;20.37;46.69
12973;BME280;6551;51.056;9.466;2023-06-14T00:40:07;97479.88;;;20.38;46.58
12973;BME280;6551;51.056;9.466;2023-06-14T00:42:34;97480.06;;;20.47;46.66
12973;BME280;6551;51.056;9.466;2023-06-14T00:45:00;97483.09;;;20.12;47.09
12973;BME280;6551;51.056;9.466;2023-06-14T00:47:26;97482.59;;;20.38;46.82
12973;BME280;6551;51.056;9.466;2023-06-14T00:49:54;97480.13;;;20.42;47.21
12973;BME280;6551;51.056;9.466;2023-06-14T00:52:22;97481.56;;;20.34;47.29
12973;BME280;6551;51.056;9.466;2023-06-14T00:54:50;97484.47;;;20.38;47.12
12973;BME280;6551;51.056;9.466;2023-06-14T00:57:16;97490.69;;;20.38;47.34
12973;BME280;6551;51.056;9.466;2023-06-14T00:59:48;97486.25;;;20.76;47.16
12973;BME280;6551;51.056;9.466;2023-06-14T01:02:15;97491.38;;;20.25;47.06
12973;BME280;6551;51.056;9.466;2023-06-14T01:04:42;97494.16;;;19.81;47.82
12973;BME280;6551;51.056;9.466;2023-06-14T01:13:20;97498.56;;;20.40;47.20
12973;BME280;6551;51.056;9.466;2023-06-14T01:15:49;97493.53;;;20.23;47.41
12973;BME280;6551;51.056;9.466;2023-06-14T01:18:16;97503.25;;;19.96;48.00
12973;BME280;6551;51.056;9.466;2023-06-14T01:20:44;97497.66;;;19.82;48.10
12973;BME280;6551;51.056;9.466;2023-06-14T01:23:11;97505.66;;;19.97;47.98
12973;BME280;6551;51.056;9.466;2023-06-14T01:25:38;97497.13;;;19.80;48.32
12973;BME280;6551;51.056;9.466;2023-06-14T01:28:07;97502.78;;;19.83;48.28
12973;BME280;6551;51.056;9.466;2023-06-14T01:30:39;97502.91;;;19.63;48.18
12973;BME280;6551;51.056;9.466;2023-06-14T01:33:13;97498.63;;;19.62;48.45
12973;BME280;6551;51.056;9.466;2023-06-14T01:35:47;97501.13;;;19.44;48.73
12973;BME280;6551;51.056;9.466;2023-06-14T01:38:14;97502.88;;;19.19;48.84
12973;BME280;6551;51.056;9.466;2023-06-14T01:40:42;97499.66;;;19.17;48.87
12973;BME280;6551;51.056;9.466;2023-06-14T01:43:10;97508.63;;;19.03;49.30
12973;BME280;6551;51.056;9.466;2023-06-14T01:45:37;97498.94;;;19.02;49.50
12973;BME280;6551;51.056;9.466;2023-06-14T01:48:06;97495.75;;;18.85;49.89
12973;BME280;6551;51.056;9.466;2023-06-14T01:50:32;97495.19;;;18.88;49.93
12973;BME280;6551;51.056;9.466;2023-06-14T01:52:59;97503.53;;;18.91;50.00
12973;BME280;6551;51.056;9.466;2023-06-14T01:55:25;97496.00;;;18.83;50.23
12973;BME280;6551;51.056;9.466;2023-06-14T01:57:52;97501.59;;;19.07;49.58
12973;BME280;6551;51.056;9.466;2023-06-14T02:00:19;97496.25;;;18.92;50.01
12973;BME280;6551;51.056;9.466;2023-06-14T02:02:46;97500.84;;;18.86;50.39
12973;BME280;6551;51.056;9.466;2023-06-14T02:05:12;97503.84;;;18.85;50.51
12973;BME280;6551;51.056;9.466;2023-06-14T02:07:38;97493.78;;;19.00;50.35
12973;BME280;6551;51.056;9.466;2023-06-14T02:10:04;97500.25;;;19.04;50.71
12973;BME280;6551;51.056;9.466;2023-06-14T02:12:32;97501.06;;;19.00;50.31
12973;BME280;6551;51.056;9.466;2023-06-14T02:14:59;97505.75;;;18.79;50.70
12973;BME280;6551;51.056;9.466;2023-06-14T02:17:25;97497.84;;;18.98;50.58
12973;BME280;6551;51.056;9.466;2023-06-14T02:19:52;97508.75;;;18.67;50.96
12973;BME280;6551;51.056;9.466;2023-06-14T02:22:18;97511.03;;;18.99;50.78
12973;BME280;6551;51.056;9.466;2023-06-14T02:24:46;97512.88;;;19.14;50.65
12973;BME280;6551;51.056;9.466;2023-06-14T02:27:13;97520.91;;;19.39;50.30
12973;BME280;6551;51.056;9.466;2023-06-14T02:29:39;97519.75;;;19.50;49.78
12973;BME280;6551;51.056;9.466;2023-06-14T02:32:06;97506.38;;;19.69;49.25
12973;BME280;6551;51.056;9.466;2023-06-14T02:34:34;97514.66;;;19.88;49.02
12973;BME280;6551;51.056;9.466;2023-06-14T02:37:01;97513.59;;;19.83;49.24
12973;BME280;6551;51.056;9.466;2023-06-14T02:39:31;97512.00;;;19.77;50.00
12973;BME280;6551;51.056;9.466;2023-06-14T02:41:58;97504.09;;;19.86;49.84
12973;BME280;6551;51.056;9.466;2023-06-14T02:44:25;97506.81;;;19.86;48.94
12973;BME280;6551;51.056;9.466;2023-06-14T02:46:54;97510.28;;;19.92;48.94
12973;BME280;6551;51.056;9.466;2023-06-14T02:49:22;97516.47;;;19.97;48.74
12973;BME280;6551;51.056;9.466;2023-06-14T02:51:48;97513.72;;;20.02;48.38
12973;BME280;6551;51.056;9.466;2023-06-14T02:54:14;97512.34;;;19.71;48.73
12973;BME280;6551;51.056;9.466;2023-06-14T02:56:43;97514.34;;;19.89;49.25
12973;BME280;6551;51.056;9.466;2023-06-14T02:59:10;97510.44;;;20.05;48.56
12973;BME280;6551;51.056;9.466;2023-06-14T03:01:37;97512.50;;;19.84;48.87
12973;BME280;6551;51.056;9.466;2023-06-14T03:04:04;97517.22;;;19.64;49.49
12973;BME280;6551;51.056;9.466;2023-06-14T03:06:31;97517.53;;;19.62;50.65
12973;BME280;6551;51.056;9.466;2023-06-14T03:08:59;97518.31;;;19.68;48.26
12973;BME280;6551;51.056;9.466;2023-06-14T03:11:27;97525.22;;;19.35;49.71
12973;BME280;6551;51.056;9.466;2023-06-14T03:13:53;97528.41;;;19.47;49.57
12973;BME280;6551;51.056;9.466;2023-06-14T03:16:19;97524.41;;;19.40;49.79
12973;BME280;6551;51.056;9.466;2023-06-14T03:18:49;97522.41;;;19.55;49.82
12973;BME280;6551;51.056;9.466;2023-06-14T03:21:16;97520.00;;;19.54;49.51
12973;BME280;6551;51.056;9.466;2023-06-14T03:23:43;97525.94;;;19.56;50.14
12973;BME280;6551;51.056;9.466;2023-06-14T03:26:09;97530.84;;;19.49;50.13
12973;BME280;6551;51.056;9.466;2023-06-14T03:28:40;97539.44;;;19.56;49.66
12973;BME280;6551;51.056;9.466;2023-06-14T03:31:07;97541.28;;;19.65;49.32
12973;BME280;6551;51.056;9.466;2023-06-14T03:33:34;97545.41;;;19.92;48.53
12973;BME280;6551;51.056;9.466;2023-06-14T03:36:02;97546.06;;;19.78;48.27
12973;BME280;6551;51.056;9.466;2023-06-14T03:38:29;97538.06;;;19.97;49.09
12973;BME280;6551;51.056;9.466;2023-06-14T03:40:55;97549.06;;;20.11;48.79
12973;BME280;6551;51.056;9.466;2023-06-14T03:43:23;97545.34;;;20.40;48.12
12973;BME280;6551;51.056;9.466;2023-06-14T03:45:50;97550.09;;;20.77;47.82
12973;BME280;6551;51.056;9.466;2023-06-14T03:48:17;97559.53;;;19.83;49.24
12973;BME280;6551;51.056;9.466;2023-06-14T03:50:44;97562.97;;;19.94;49.07
12973;BME280;6551;51.056;9.466;2023-06-14T03:53:10;97559.47;;;20.61;47.23
12973;BME280;6551;51.056;9.466;2023-06-14T03:55:38;97564.97;;;20.80;47.21
12973;BME280;6551;51.056;9.466;2023-06-14T03:58:04;97562.94;;;20.67;46.36
12973;BME280;6551;51.056;9.466;2023-06-14T04:00:31;97566.78;;;20.61;46.67
12973;BME280;6551;51.056;9.466;2023-06-14T04:02:59;97567.03;;;21.40;46.14
12973;BME280;6551;51.056;9.466;2023-06-14T04:05:25;97566.44;;;21.43;46.26
12973;BME280;6551;51.056;9.466;2023-06-14T04:07:52;97577.13;;;21.53;45.52
12973;BME280;6551;51.056;9.466;2023-06-14T04:10:21;97587.13;;;21.11;46.42
12973;BME280;6551;51.056;9.466;2023-06-14T04:12:47;97588.78;;;21.07;46.60
12973;BME280;6551;51.056;9.466;2023-06-14T04:15:14;97590.06;;;21.14;46.75
12973;BME280;6551;51.056;9.466;2023-06-14T04:17:40;97592.66;;;21.24;46.51
12973;BME280;6551;51.056;9.466;2023-06-14T04:20:06;97591.25;;;21.32;46.58
12973;BME280;6551;51.056;9.466;2023-06-14T04:22:35;97602.53;;;21.57;45.90
12973;BME280;6551;51.056;9.466;2023-06-14T04:25:03;97604.50;;;21.52;46.04
12973;BME280;6551;51.056;9.466;2023-06-14T04:27:33;97602.69;;;21.47;45.89
12973;BME280;6551;51.056;9.466;2023-06-14T04:30:05;97609.09;;;21.09;47.05
12973;BME280;6551;51.056;9.466;2023-06-14T04:32:32;97607.00;;;21.01;46.97
12973;BME280;6551;51.056;9.466;2023-06-14T04:35:07;97612.22;;;20.64;48.24
12973;BME280;6551;51.056;9.466;2023-06-14T04:37:35;97611.19;;;20.60;48.13
12973;BME280;6551;51.056;9.466;2023-06-14T04:40:06;97624.91;;;20.68;47.88
12973;BME280;6551;51.056;9.466;2023-06-14T04:42:33;97608.88;;;20.77;48.28
12973;BME280;6551;51.056;9.466;2023-06-14T04:45:04;97623.03;;;20.64;48.09
12973;BME280;6551;51.056;9.466;2023-06-14T04:47:30;97616.69;;;20.45;48.27
12973;BME280;6551;51.056;9.466;2023-06-14T04:49:57;97615.69;;;20.98;47.91
12973;BME280;6551;51.056;9.466;2023-06-14T04:52:25;97608.75;;;21.16;47.61
12973;BME280;6551;51.056;9.466;2023-06-14T04:54:53;97613.75;;;21.27;47.19
12973;BME280;6551;51.056;9.466;2023-06-14T04:57:20;97605.94;;;21.26;47.44
12973;BME280;6551;51.056;9.466;2023-06-14T04:59:48;97613.00;;;21.22;47.70
12973;BME280;6551;51.056;9.466;2023-06-14T05:02:14;97610.13;;;21.13;47.92
12973;BME280;6551;51.056;9.466;2023-06-14T05:04:42;97606.19;;;21.24;47.28
12973;BME280;6551;51.056;9.466;2023-06-14T05:07:09;97605.09;;;21.02;47.74
12973;BME280;6551;51.056;9.466;2023-06-14T05:09:37;97609.78;;;21.20;47.38
12973;BME280;6551;51.056;9.466;2023-06-14T05:12:06;97609.22;;;21.23;47.41
12973;BME280;6551;51.056;9.466;2023-06-14T05:14:37;97615.06;;;21.30;47.75
12973;BME280;6551;51.056;9.466;2023-06-14T05:17:04;97611.75;;;21.38;47.10
12973;BME280;6551;51.056;9.466;2023-06-14T05:19:32;97601.88;;;21.47;47.01
12973;BME280;6551;51.056;9.466;2023-06-14T05:21:59;97600.97;;;21.75;46.78
12973;BME280;6551;51.056;9.466;2023-06-14T05:24:25;97608.94;;;21.90;46.69
12973;BME280;6551;51.056;9.466;2023-06-14T05:26:51;97600.38;;;21.78;46.34
12973;BME280;6551;51.056;9.466;2023-06-14T05:29:17;97608.28;;;21.98;46.46
12973;BME280;6551;51.056;9.466;2023-06-14T05:31:44;97609.59;;;22.01;46.28
12973;BME280;6551;51.056;9.466;2023-06-14T05:34:13;97616.91;;;22.19;46.52
12973;BME280;6551;51.056;9.466;2023-06-14T05:36:41;97624.13;;;22.10;46.16
12973;BME280;6551;51.056;9.466;2023-06-14T05:39:07;97619.25;;;22.26;46.01
12973;BME280;6551;51.056;9.466;2023-06-14T05:41:35;97623.28;;;22.28;45.97
12973;BME280;6551;51.056;9.466;2023-06-14T05:44:02;97629.38;;;22.20;46.24
12973;BME280;6551;51.056;9.466;2023-06-14T05:46:29;97631.47;;;22.42;46.08
12973;BME280;6551;51.056;9.466;2023-06-14T05:48:55;97621.66;;;22.46;45.64
12973;BME280;6551;51.056;9.466;2023-06-14T05:51:22;97621.34;;;22.47;45.74
12973;BME280;6551;51.056;9.466;2023-06-14T05:53:50;97628.44;;;22.62;45.66
12973;BME280;6551;51.056;9.466;2023-06-14T05:56:18;97631.63;;;22.83;45.58
12973;BME280;6551;51.056;9.466;2023-06-14T05:58:44;97636.94;;;22.74;45.16
12973;BME280;6551;51.056;9.466;2023-06-14T06:01:11;97642.28;;;22.65;44.92
12973;BME280;6551;51.056;9.466;2023-06-14T06:03:37;97638.06;;;22.73;45.01
12973;BME280;6551;51.056;9.466;2023-06-14T06:06:03;97648.22;;;22.11;45.68
12973;BME280;6551;51.056;9.466;2023-06-14T06:08:30;97643.81;;;22.34;45.98
12973;BME280;6551;51.056;9.466;2023-06-14T06:10:58;97647.91;;;22.13;46.64
12973;BME280;6551;51.056;9.466;2023-06-14T06:13:24;97645.56;;;21.88;47.12
12973;BME280;6551;51.056;9.466;2023-06-14T06:15:51;97646.16;;;21.80;47.50
12973;BME280;6551;51.056;9.466;2023-06-14T06:18:17;97649.03;;;21.93;47.31
12973;BME280;6551;51.056;9.466;2023-06-14T06:20:44;97644.00;;;21.82;47.34
12973;BME280;6551;51.056;9.466;2023-06-14T06:23:12;97640.97;;;21.83;47.56
12973;BME280;6551;51.056;9.466;2023-06-14T06:25:38;97646.75;;;22.00;47.89
12973;BME280;6551;51.056;9.466;2023-06-14T06:28:04;97657.66;;;21.72;47.56
12973;BME280;6551;51.056;9.466;2023-06-14T06:30:31;97658.75;;;22.13;47.58
12973;BME280;6551;51.056;9.466;2023-06-14T06:32:58;97656.28;;;22.54;47.16
12973;BME280;6551;51.056;9.466;2023-06-14T06:35:25;97651.25;;;22.80;46.45
12973;BME280;6551;51.056;9.466;2023-06-14T06:37:51;97653.22;;;22.74;45.70
12973;BME280;6551;51.056;9.466;2023-06-14T06:40:17;97664.91;;;23.07;45.85
12973;BME280;6551;51.056;9.466;2023-06-14T06:42:43;97671.94;;;23.40;45.31
12973;BME280;6551;51.056;9.466;2023-06-14T06:45:09;97671.63;;;24.10;43.98
12973;BME280;6551;51.056;9.466;2023-06-14T06:47:35;97664.19;;;22.69;45.50
12973;BME280;6551;51.056;9.466;2023-06-14T06:50:03;97675.69;;;22.80;45.85
12973;BME280;6551;51.056;9.466;2023-06-14T06:52:28;97673.03;;;22.93;46.26
12973;BME280;6551;51.056;9.466;2023-06-14T06:54:55;97669.69;;;22.64;46.02
12973;BME280;6551;51.056;9.466;2023-06-14T06:57:22;97680.47;;;22.50;46.29
12973;BME280;6551;51.056;9.466;2023-06-14T06:59:49;97678.78;;;23.05;45.58
12973;BME280;6551;51.056;9.466;2023-06-14T07:02:16;97685.25;;;23.23;45.33
12973;BME280;6551;51.056;9.466;2023-06-14T07:04:43;97682.50;;;23.42;45.20
12973;BME280;6551;51.056;9.466;2023-06-14T07:07:09;97673.16;;;23.48;44.92
12973;BME280;6551;51.056;9.466;2023-06-14T07:09:38;97682.78;;;22.94;45.21
12973;BME280;6551;51.056;9.466;2023-06-14T07:12:04;97679.56;;;23.38;45.11
12973;BME280;6551;51.056;9.466;2023-06-14T07:14:33;97682.81;;;23.54;45.12
12973;BME280;6551;51.056;9.466;2023-06-14T07:17:00;97689.25;;;23.71;44.70
12973;BME280;6551;51.056;9.466;2023-06-14T07:19:28;97686.13;;;23.92;43.64
12973;BME280;6551;51.056;9.466;2023-06-14T07:21:54;97693.97;;;23.39;44.77
12973;BME280;6551;51.056;9.466;2023-06-14T07:24:22;97686.78;;;23.29;44.85
12973;BME280;6551;51.056;9.466;2023-06-14T07:26:48;97684.56;;;23.31;44.85
12973;BME280;6551;51.056;9.466;2023-06-14T07:29:15;97693.97;;;23.06;45.27
12973;BME280;6551;51.056;9.466;2023-06-14T07:31:42;97697.84;;;22.87;45.49
12973;BME280;6551;51.056;9.466;2023-06-14T07:34:08;97687.41;;;22.94;45.74
12973;BME280;6551;51.056;9.466;2023-06-14T07:36:36;97694.50;;;23.41;44.83
12973;BME280;6551;51.056;9.466;2023-06-14T07:39:04;97687.97;;;23.09;45.77
12973;BME280;6551;51.056;9.466;2023-06-14T07:41:33;97693.97;;;23.06;46.01
12973;BME280;6551;51.056;9.466;2023-06-14T07:44:00;97690.50;;;23.33;45.44
12973;BME280;6551;51.056;9.466;2023-06-14T07:46:26;97687.66;;;23.57;44.63
12973;BME280;6551;51.056;9.466;2023-06-14T07:48:52;97680.00;;;23.72;43.75
12973;BME280;6551;51.056;9.466;2023-06-14T07:51:18;97687.66;;;23.84;43.98
12973;BME280;6551;51.056;9.466;2023-06-14T07:53:44;97684.22;;;23.65;44.11
12973;BME280;6551;51.056;9.466;2023-06-14T07:56:10;97693.28;;;23.60;44.07
12973;BME280;6551;51.056;9.466;2023-06-14T07:58:37;97688.75;;;23.83;44.18
12973;BME280;6551;51.056;9.466;2023-06-14T08:01:04;97678.84;;;24.01;43.62
12973;BME280;6551;51.056;9.466;2023-06-14T08:03:32;97681.66;;;24.23;43.38
12973;BME280;6551;51.056;9.466;2023-06-14T08:05:59;97677.44;;;24.17;43.62
12973;BME280;6551;51.056;9.466;2023-06-14T08:08:36;97684.06;;;24.60;42.17
12973;BME280;6551;51.056;9.466;2023-06-14T08:11:03;97682.88;;;24.53;42.89
12973;BME280;6551;51.056;9.466;2023-06-14T08:13:31;97697.53;;;24.79;42.61
12973;BME280;6551;51.056;9.466;2023-06-14T08:16:00;97701.34;;;24.78;42.35
12973;BME280;6551;51.056;9.466;2023-06-14T08:18:28;97693.41;;;24.46;42.79
12973;BME280;6551;51.056;9.466;2023-06-14T08:20:56;97695.47;;;23.99;43.07
12973;BME280;6551;51.056;9.466;2023-06-14T08:23:23;97692.56;;;23.96;43.95
12973;BME280;6551;51.056;9.466;2023-06-14T08:25:49;97689.16;;;24.17;44.00
12973;BME280;6551;51.056;9.466;2023-06-14T08:28:16;97690.81;;;24.40;43.70
12973;BME280;6551;51.056;9.466;2023-06-14T08:30:44;97689.16;;;23.90;43.98
12973;BME280;6551;51.056;9.466;2023-06-14T08:33:11;97686.88;;;24.33;43.67
12973;BME280;6551;51.056;9.466;2023-06-14T08:35:37;97693.75;;;24.30;43.64
12973;BME280;6551;51.056;9.466;2023-06-14T08:38:05;97699.19;;;25.11;42.64
12973;BME280;6551;51.056;9.466;2023-06-14T08:40:33;97695.75;;;25.27;41.80
12973;BME280;6551;51.056;9.466;2023-06-14T08:43:03;97700.00;;;25.11;41.40
12973;BME280;6551;51.056;9.466;2023-06-14T08:45:30;97701.25;;;25.05;41.63
12973;BME280;6551;51.056;9.466;2023-06-14T08:47:56;97706.75;;;24.91;41.79
12973;BME280;6551;51.056;9.466;2023-06-14T08:50:25;97705.75;;;24.65;41.92
12973;BME280;6551;51.056;9.466;2023-06-14T08:52:58;97705.41;;;24.44;42.24
12973;BME280;6551;51.056;9.466;2023-06-14T08:55:31;97707.63;;;23.34;44.18
12973;BME280;6551;51.056;9.466;2023-06-14T08:58:01;97704.56;;;23.67;44.12
12973;BME280;6551;51.056;9.466;2023-06-14T09:00:30;97707.69;;;23.61;44.38
12973;BME280;6551;51.056;9.466;2023-06-14T09:03:00;97703.09;;;23.29;44.63
12973;BME280;6551;51.056;9.466;2023-06-14T09:05:27;97703.97;;;23.43;44.78
12973;BME280;6551;51.056;9.466;2023-06-14T09:07:54;97705.88;;;23.56;44.57
12973;BME280;6551;51.056;9.466;2023-06-14T09:10:31;97716.38;;;23.76;43.65
12973;BME280;6551;51.056;9.466;2023-06-14T09:13:04;97706.66;;;23.98;43.95
12973;BME280;6551;51.056;9.466;2023-06-14T09:15:31;97708.81;;;24.86;43.30
12973;BME280;6551;51.056;9.466;2023-06-14T09:18:01;97714.38;;;24.81;42.63
12973;BME280;6551;51.056;9.466;2023-06-14T09:20:30;97714.66;;;24.57;42.83
12973;BME280;6551;51.056;9.466;2023-06-14T09:22:56;97717.44;;;24.03;43.48
12973;BME280;6551;51.056;9.466;2023-06-14T09:25:22;97718.91;;;24.50;43.16
12973;BME280;6551;51.056;9.466;2023-06-14T09:27:51;97727.03;;;24.63;43.12
12973;BME280;6551;51.056;9.466;2023-06-14T09:30:20;97728.19;;;24.84;41.87
12973;BME280;6551;51.056;9.466;2023-06-14T09:32:47;97717.66;;;25.14;41.24
12973;BME280;6551;51.056;9.466;2023-06-14T09:35:18;97717.44;;;24.66;41.96
12973;BME280;6551;51.056;9.466;2023-06-14T09:37:44;97719.88;;;24.04;41.82
12973;BME280;6551;51.056;9.466;2023-06-14T09:40:10;97718.66;;;23.97;43.21
12973;BME280;6551;51.056;9.466;2023-06-14T09:42:37;97726.72;;;23.88;43.48
12973;BME280;6551;51.056;9.466;2023-06-14T09:45:04;97727.44;;;24.07;43.58
12973;BME280;6551;51.056;9.466;2023-06-14T09:47:33;97729.34;;;24.07;43.67
12973;BME280;6551;51.056;9.466;2023-06-14T09:50:02;97728.06;;;24.54;42.35
12973;BME280;6551;51.056;9.466;2023-06-14T09:52:30;97728.44;;;24.96;41.81
12973;BME280;6551;51.056;9.466;2023-06-14T09:54:58;97719.75;;;25.17;40.76
12973;BME280;6551;51.056;9.466;2023-06-14T09:57:26;97734.50;;;25.16;40.83
12973;BME280;6551;51.056;9.466;2023-06-14T09:59:56;97726.09;;;24.81;41.47
12973;BME280;6551;51.056;9.466;2023-06-14T10:02:36;97732.19;;;24.65;41.90
12973;BME280;6551;51.056;9.466;2023-06-14T10:05:05;97728.56;;;24.56;41.79
12973;BME280;6551;51.056;9.466;2023-06-14T10:07:51;97730.88;;;24.98;41.98
12973;BME280;6551;51.056;9.466;2023-06-14T10:10:18;97723.31;;;24.59;41.66
12973;BME280;6551;51.056;9.466;2023-06-14T10:12:44;97721.47;;;24.68;41.16
12973;BME280;6551;51.056;9.466;2023-06-14T10:15:16;97713.16;;;24.51;41.84
12973;BME280;6551;51.056;9.466;2023-06-14T10:17:59;97713.81;;;24.34;42.39
12973;BME280;6551;51.056;9.466;2023-06-14T10:20:49;97715.84;;;24.02;42.16
12973;BME280;6551;51.056;9.466;2023-06-14T10:23:20;97714.53;;;23.72;42.22
12973;BME280;6551;51.056;9.466;2023-06-14T10:25:50;97711.84;;;23.26;42.98
12973;BME280;6551;51.056;9.466;2023-06-14T10:28:21;97711.97;;;23.02;44.10
12973;BME280;6551;51.056;9.466;2023-06-14T10:31:10;97704.94;;;23.47;43.51
12973;BME280;6551;51.056;9.466;2023-06-14T10:33:49;97721.25;;;23.47;43.20
12973;BME280;6551;51.056;9.466;2023-06-14T10:36:30;97710.72;;;23.73;42.43
12973;BME280;6551;51.056;9.466;2023-06-14T10:39:12;97703.16;;;24.47;42.29
12973;BME280;6551;51.056;9.466;2023-06-14T10:41:50;97700.47;;;24.69;41.24
12973;BME280;6551;51.056;9.466;2023-06-14T10:46:56;97692.28;;;25.66;40.39
12973;BME280;6551;51.056;9.466;2023-06-14T10:49:43;97694.22;;;26.13;39.06
12973;BME280;6551;51.056;9.466;2023-06-14T10:52:15;97695.69;;;26.20;37.96
12973;BME280;6551;51.056;9.466;2023-06-14T10:55:18;97699.06;;;26.25;38.57
12973;BME280;6551;51.056;9.466;2023-06-14T10:57:52;97695.72;;;26.45;38.46
12973;BME280;6551;51.056;9.466;2023-06-14T11:00:23;97692.84;;;26.59;38.31
12973;BME280;6551;51.056;9.466;2023-06-14T11:05:53;97702.50;;;25.52;38.73
12973;BME280;6551;51.056;9.466;2023-06-14T11:11:10;97696.75;;;25.00;40.50
12973;BME280;6551;51.056;9.466;2023-06-14T11:13:41;97710.25;;;24.48;40.90
12973;BME280;6551;51.056;9.466;2023-06-14T11:16:15;97706.84;;;24.28;41.18
12973;BME280;6551;51.056;9.466;2023-06-14T11:18:42;97708.88;;;24.59;40.63
12973;BME280;6551;51.056;9.466;2023-06-14T11:21:10;97704.31;;;24.81;40.67
12973;BME280;6551;51.056;9.466;2023-06-14T11:23:37;97700.38;;;25.18;40.05
12973;BME280;6551;51.056;9.466;2023-06-14T11:26:04;97692.13;;;25.32;39.69
12973;BME280;6551;51.056;9.466;2023-06-14T11:28:40;97679.78;;;25.34;39.84
12973;BME280;6551;51.056;9.466;2023-06-14T11:31:07;97692.91;;;25.02;39.59
12973;BME280;6551;51.056;9.466;2023-06-14T11:33:35;97692.25;;;25.05;39.34
12973;BME280;6551;51.056;9.466;2023-06-14T11:36:05;97694.00;;;25.00;40.48
12973;BME280;6551;51.056;9.466;2023-06-14T11:38:37;97699.72;;;25.13;40.79
12973;BME280;6551;51.056;9.466;2023-06-14T11:41:03;97694.53;;;25.33;39.63
12973;BME280;6551;51.056;9.466;2023-06-14T11:43:31;97681.41;;;25.13;39.16
12973;BME280;6551;51.056;9.466;2023-06-14T11:46:00;97692.91;;;25.02;39.39
12973;BME280;6551;51.056;9.466;2023-06-14T11:48:42;97685.19;;;25.26;39.52
12973;BME280;6551;51.056;9.466;2023-06-14T11:51:08;97684.72;;;25.24;38.89
12973;BME280;6551;51.056;9.466;2023-06-14T11:53:36;97678.41;;;25.15;39.51
12973;BME280;6551;51.056;9.466;2023-06-14T11:56:02;97685.16;;;24.95;40.64
12973;BME280;6551;51.056;9.466;2023-06-14T11:58:29;97685.69;;;24.61;39.82
12973;BME280;6551;51.056;9.466;2023-06-14T12:00:57;97685.69;;;24.61;40.81
12973;BME280;6551;51.056;9.466;2023-06-14T12:03:27;97687.19;;;24.67;40.35
12973;BME280;6551;51.056;9.466;2023-06-14T12:06:09;97684.69;;;24.35;40.30
12973;BME280;6551;51.056;9.466;2023-06-14T12:08:37;97691.59;;;24.41;40.26
12973;BME280;6551;51.056;9.466;2023-06-14T12:11:16;97695.63;;;24.66;40.35
12973;BME280;6551;51.056;9.466;2023-06-14T12:13:43;97698.47;;;24.38;40.75
12973;BME280;6551;51.056;9.466;2023-06-14T12:16:12;97691.19;;;24.48;40.71
12973;BME280;6551;51.056;9.466;2023-06-14T12:18:40;97699.03;;;24.49;40.59
12973;BME280;6551;51.056;9.466;2023-06-14T12:21:12;97689.34;;;24.21;40.92
12973;BME280;6551;51.056;9.466;2023-06-14T12:23:46;97686.31;;;24.09;40.78
12973;BME280;6551;51.056;9.466;2023-06-14T12:26:17;97698.66;;;24.42;40.35
12973;BME280;6551;51.056;9.466;2023-06-14T12:28:45;97690.19;;;24.66;39.99
12973;BME280;6551;51.056;9.466;2023-06-14T12:31:12;97683.38;;;24.77;40.37
12973;BME280;6551;51.056;9.466;2023-06-14T12:33:42;97683.81;;;24.84;39.86
12973;BME280;6551;51.056;9.466;2023-06-14T12:36:11;97683.84;;;24.70;40.04
12973;BME280;6551;51.056;9.466;2023-06-14T12:38:38;97685.56;;;24.66;40.19
12973;BME280;6551;51.056;9.466;2023-06-14T12:41:06;97688.00;;;24.68;39.90
12973;BME280;6551;51.056;9.466;2023-06-14T12:43:34;97689.28;;;24.70;39.09
12973;BME280;6551;51.056;9.466;2023-06-14T12:46:00;97688.47;;;24.70;38.94
12973;BME280;6551;51.056;9.466;2023-06-14T12:48:27;97692.50;;;24.72;38.67
12973;BME280;6551;51.056;9.466;2023-06-14T12:50:54;97688.91;;;24.63;38.82
12973;BME280;6551;51.056;9.466;2023-06-14T12:53:21;97681.31;;;25.27;38.93
12973;BME280;6551;51.056;9.466;2023-06-14T12:55:48;97682.75;;;25.24;38.73
12973;BME280;6551;51.056;9.466;2023-06-14T12:58:14;97683.09;;;25.23;38.28
12973;BME280;6551;51.056;9.466;2023-06-14T13:00:42;97677.06;;;25.34;37.70
12973;BME280;6551;51.056;9.466;2023-06-14T13:03:10;97686.25;;;25.16;37.65
12973;BME280;6551;51.056;9.466;2023-06-14T13:05:38;97675.66;;;25.15;36.98
12973;BME280;6551;51.056;9.466;2023-06-14T13:08:08;97684.75;;;25.02;37.83
12973;BME280;6551;51.056;9.466;2023-06-14T13:10:35;97692.91;;;25.02;37.51
12973;BME280;6551;51.056;9.466;2023-06-14T13:13:04;97678.50;;;25.32;37.64
12973;BME280;6551;51.056;9.466;2023-06-14T13:15:33;97688.09;;;25.29;38.13
12973;BME280;6551;51.056;9.466;2023-06-14T13:18:00;97694.72;;;25.37;38.26
12973;BME280;6551;51.056;9.466;2023-06-14T13:20:27;97695.97;;;25.09;38.31
12973;BME280;6551;51.056;9.466;2023-06-14T13:22:53;97687.78;;;25.31;38.07
12973;BME280;6551;51.056;9.466;2023-06-14T13:25:20;97686.66;;;25.54;38.41
12973;BME280;6551;51.056;9.466;2023-06-14T13:27:47;97682.81;;;25.64;38.27
12973;BME280;6551;51.056;9.466;2023-06-14T13:30:14;97684.53;;;25.51;38.46